Time;durP1;ratioP1;P1;durP2;ratioP2;P2;SDS_P1;SDS_P2;PMS_P1;PMS_P2;Temp;Humidity;BMP_temperature;BMP_pressure;BME280_temperature;BME280_humidity;BME280_pressure;Samples;Min_cycle;Max_cycle;Signal;HPM_P1;HPM_P2
2022/01/17 00:00:18;;;;;;;;;260.50;222.75;3.40;78.50;;;;;;5074027;28;8772;-64
2022/01/17 00:02:46;;;;;;;;;256.00;229.50;3.40;79.80;;;;;;5073862;28;8768;-65
2022/01/17 00:05:11;;;;;;;;;252.50;229.25;3.50;79.10;;;;;;5074055;28;8790;-66
2022/01/17 00:07:38;;;;;;;;;244.00;217.75;3.60;78.60;;;;;;5074014;28;8791;-65
2022/01/17 00:10:05;;;;;;;;;244.75;222.00;3.30;79.90;;;;;;5073703;28;8809;-66
2022/01/17 00:12:35;;;;;;;;;243.25;219.00;3.10;83.90;;;;;;5073605;28;8789;-67
2022/01/17 00:15:01;;;;;;;;;254.50;230.00;3.40;81.50;;;;;;5073776;28;8904;-67
2022/01/17 00:17:37;;;;;;;;;259.00;235.25;3.80;79.30;;;;;;5073607;28;8785;-67
2022/01/17 00:20:10;;;;;;;;;262.25;232.25;3.90;77.20;;;;;;5073695;28;8772;-65
2022/01/17 00:22:38;;;;;;;;;265.75;239.75;3.90;76.60;;;;;;5073742;28;8922;-67
2022/01/17 00:25:05;;;;;;;;;268.00;250.00;4.00;76.10;;;;;;5073818;28;8780;-65
2022/01/17 00:27:31;;;;;;;;;282.25;251.25;4.00;76.10;;;;;;5073586;28;8803;-66
2022/01/17 00:29:57;;;;;;;;;276.75;241.25;4.00;76.40;;;;;;5073572;28;8796;-65
2022/01/17 00:32:23;;;;;;;;;248.25;227.00;4.00;76.30;;;;;;5073798;28;8772;-67
2022/01/17 00:34:49;;;;;;;;;251.25;226.25;3.90;76.50;;;;;;5073755;28;8831;-67
2022/01/17 00:37:15;;;;;;;;;254.50;225.75;3.30;81.00;;;;;;5073636;28;8855;-67
2022/01/17 00:39:41;;;;;;;;;270.50;241.50;3.60;79.60;;;;;;5075149;28;8772;-66
2022/01/17 00:42:07;;;;;;;;;259.75;234.00;3.50;80.10;;;;;;5076038;28;8792;-65
2022/01/17 00:44:33;;;;;;;;;278.50;251.75;3.70;79.00;;;;;;5076967;28;8853;-66
2022/01/17 00:47:00;;;;;;;;;276.00;252.00;3.50;80.30;;;;;;5077294;28;8843;-65
2022/01/17 00:49:26;;;;;;;;;263.25;235.00;3.60;79.80;;;;;;5075922;28;8791;-65
2022/01/17 00:51:52;;;;;;;;;244.25;218.50;3.30;83.30;;;;;;5077017;28;8803;-65
2022/01/17 00:54:18;;;;;;;;;229.75;207.75;3.30;83.70;;;;;;5077042;28;8820;-65
2022/01/17 00:56:44;;;;;;;;;223.50;198.75;3.20;84.60;;;;;;5075812;28;8773;-65
2022/01/17 00:59:10;;;;;;;;;226.50;204.50;3.30;84.10;;;;;;5076792;28;8811;-65
2022/01/17 01:01:36;;;;;;;;;233.00;210.00;3.40;83.40;;;;;;5072427;28;8777;-66
2022/01/17 01:04:02;;;;;;;;;225.00;202.50;3.40;83.50;;;;;;5072629;28;8777;-65
2022/01/17 01:06:28;;;;;;;;;208.50;196.25;3.80;80.50;;;;;;5056753;28;8763;-65
2022/01/17 01:08:53;;;;;;;;;218.00;198.75;3.70;79.80;;;;;;5056856;28;8771;-65
2022/01/17 01:11:19;;;;;;;;;219.00;200.75;3.60;81.20;;;;;;5056517;28;8763;-65
2022/01/17 01:13:45;;;;;;;;;213.25;188.50;3.70;80.30;;;;;;5056704;28;8853;-65
2022/01/17 01:16:24;;;;;;;;;210.00;197.00;3.90;79.30;;;;;;5056709;28;8836;-65
2022/01/17 01:29:29;;;;;;;;;180.00;163.75;3.50;83.20;;;;;;5056318;28;8723;-66
2022/01/17 01:32:04;;;;;;;;;196.50;182.25;3.50;85.20;;;;;;5056400;28;8786;-66
2022/01/17 01:34:37;;;;;;;;;190.25;176.75;3.40;84.00;;;;;;5056300;28;8955;-66
2022/01/17 01:37:04;;;;;;;;;190.75;170.00;3.30;84.90;;;;;;5056303;28;8791;-66
2022/01/17 01:39:30;;;;;;;;;192.00;175.50;3.20;87.20;;;;;;5056061;28;8771;-66
2022/01/17 01:41:57;;;;;;;;;191.00;172.75;3.30;86.10;;;;;;5056138;28;8782;-65
2022/01/17 01:44:25;;;;;;;;;183.00;167.75;3.20;86.80;;;;;;5056054;28;8840;-66
2022/01/17 01:46:53;;;;;;;;;193.75;178.50;3.30;84.90;;;;;;5055900;28;8789;-66
2022/01/17 01:49:21;;;;;;;;;172.75;155.00;3.40;85.10;;;;;;5055804;28;8754;-66
2022/01/17 01:51:47;;;;;;;;;186.00;164.50;3.40;83.60;;;;;;5055657;28;8779;-66
2022/01/17 01:54:13;;;;;;;;;189.00;183.50;3.40;84.70;;;;;;5055736;28;8811;-66
2022/01/17 01:56:43;;;;;;;;;189.00;171.25;3.10;86.70;;;;;;5055729;28;8778;-66
2022/01/17 01:59:10;;;;;;;;;168.75;166.00;3.00;88.60;;;;;;5055688;28;8747;-66
2022/01/17 02:01:36;;;;;;;;;186.25;163.75;2.90;89.20;;;;;;5054581;28;8783;-66
2022/01/17 02:04:02;;;;;;;;;168.75;159.50;3.20;86.90;;;;;;5055582;28;8771;-66
2022/01/17 02:06:28;;;;;;;;;179.50;166.25;3.00;87.00;;;;;;5055739;28;8774;-66
2022/01/17 02:08:54;;;;;;;;;180.00;165.00;3.10;87.90;;;;;;5055757;28;8824;-66
2022/01/17 02:11:20;;;;;;;;;175.25;157.25;3.30;85.50;;;;;;5055246;28;9385;-66
2022/01/17 02:13:46;;;;;;;;;172.25;152.75;3.00;88.40;;;;;;5055362;28;8909;-66
2022/01/17 02:16:15;;;;;;;;;168.25;155.25;2.90;89.00;;;;;;5055285;28;8790;-66
2022/01/17 02:18:44;;;;;;;;;158.00;135.75;3.10;88.30;;;;;;5055653;28;9413;-66
2022/01/17 02:21:18;;;;;;;;;170.75;155.75;3.10;88.70;;;;;;5055282;28;8759;-66
2022/01/17 02:23:47;;;;;;;;;168.00;145.50;3.00;88.60;;;;;;5055153;28;8811;-66
2022/01/17 02:26:15;;;;;;;;;169.00;152.25;2.70;91.20;;;;;;5055123;28;8787;-66
2022/01/17 02:28:49;;;;;;;;;155.00;142.75;2.50;92.80;;;;;;5055204;28;9557;-66
2022/01/17 02:31:17;;;;;;;;;169.75;150.50;2.80;91.90;;;;;;5055371;28;9486;-66
2022/01/17 02:33:43;;;;;;;;;178.50;162.50;2.80;91.70;;;;;;5054971;28;9420;-66
2022/01/17 02:36:09;;;;;;;;;167.00;149.75;3.00;91.00;;;;;;5055274;28;8747;-66
2022/01/17 02:38:38;;;;;;;;;155.50;139.75;2.70;92.30;;;;;;5054981;28;8882;-66
2022/01/17 02:41:03;;;;;;;;;176.25;154.00;2.80;92.40;;;;;;5054845;28;8790;-66
2022/01/17 02:43:31;;;;;;;;;156.25;141.75;3.10;90.40;;;;;;5055044;28;8787;-66
2022/01/17 02:48:29;;;;;;;;;165.00;154.50;3.10;89.30;;;;;;5054781;28;8767;-66
2022/01/17 02:50:56;;;;;;;;;164.50;149.00;3.50;87.20;;;;;;5054772;28;8890;-66
2022/01/17 02:53:22;;;;;;;;;168.50;151.50;3.60;84.70;;;;;;5054878;28;9490;-66
2022/01/17 02:55:57;;;;;;;;;156.00;145.00;3.50;86.70;;;;;;5054896;28;8763;-65
2022/01/17 02:58:25;;;;;;;;;175.00;158.25;3.60;86.00;;;;;;5054659;28;8751;-65
2022/01/17 03:00:56;;;;;;;;;158.50;146.00;3.30;87.50;;;;;;5054616;28;8751;-65
2022/01/17 03:03:25;;;;;;;;;165.75;152.75;3.20;88.30;;;;;;5054216;28;8767;-65
2022/01/17 03:05:52;;;;;;;;;166.75;151.00;3.40;88.00;;;;;;5054559;28;8772;-66
2022/01/17 03:08:20;;;;;;;;;170.50;149.75;3.30;88.40;;;;;;5054478;28;8774;-65
2022/01/17 03:10:49;;;;;;;;;160.50;147.00;3.30;88.10;;;;;;5054677;28;8775;-66
2022/01/17 03:13:19;;;;;;;;;165.75;148.25;3.30;88.20;;;;;;5054313;28;8795;-66
2022/01/17 03:15:47;;;;;;;;;157.50;142.50;3.50;86.30;;;;;;5054433;28;8802;-66
2022/01/17 03:18:13;;;;;;;;;148.25;143.25;3.80;82.50;;;;;;5054727;28;9405;-66
2022/01/17 03:20:39;;;;;;;;;167.00;148.00;3.90;81.30;;;;;;5054308;28;8775;-66
2022/01/17 03:23:07;;;;;;;;;164.25;147.50;3.90;81.90;;;;;;5054685;28;8791;-66
2022/01/17 03:25:33;;;;;;;;;162.25;148.00;3.50;85.80;;;;;;5054282;28;8759;-66
2022/01/17 03:27:59;;;;;;;;;118.75;118.75;3.40;87.60;;;;;;5054191;28;8778;-66
2022/01/17 03:30:27;;;;;;;;;157.50;143.75;3.30;90.30;;;;;;5054550;28;8890;-66
2022/01/17 03:32:52;;;;;;;;;159.75;146.25;3.30;88.90;;;;;;5054220;28;8778;-66
2022/01/17 03:35:19;;;;;;;;;173.50;154.25;3.20;90.00;;;;;;5054146;28;8783;-66
2022/01/17 03:37:45;;;;;;;;;168.50;153.25;3.50;88.30;;;;;;5054378;28;9519;-66
2022/01/17 03:40:12;;;;;;;;;161.75;150.50;3.50;88.10;;;;;;5054200;28;8767;-66
2022/01/17 03:42:38;;;;;;;;;166.25;152.75;3.60;87.00;;;;;;5054286;28;8781;-67
2022/01/17 03:45:07;;;;;;;;;144.25;135.50;3.30;87.70;;;;;;5054137;28;8779;-67
2022/01/17 03:47:41;;;;;;;;;154.50;144.50;3.40;88.50;;;;;;5054336;28;8775;-67
2022/01/17 03:50:13;;;;;;;;;166.50;151.25;3.40;88.70;;;;;;5054351;28;8782;-67
2022/01/17 03:52:40;;;;;;;;;154.00;133.00;3.20;89.70;;;;;;5054025;28;8794;-67
2022/01/17 03:55:11;;;;;;;;;151.75;133.00;3.30;90.20;;;;;;5054078;28;8806;-66
2022/01/17 03:57:37;;;;;;;;;153.50;136.00;3.30;90.20;;;;;;5053975;28;8791;-66
2022/01/17 04:00:06;;;;;;;;;156.00;142.50;3.40;89.40;;;;;;5054017;28;8767;-66
2022/01/17 04:02:32;;;;;;;;;156.75;143.50;3.50;88.40;;;;;;5053897;28;8770;-66
2022/01/17 04:04:57;;;;;;;;;167.75;145.25;3.70;86.80;;;;;;5053929;28;8783;-66
2022/01/17 04:07:23;;;;;;;;;144.50;136.25;3.80;85.70;;;;;;5053922;28;8752;-66
2022/01/17 04:09:49;;;;;;;;;134.50;127.00;4.10;83.70;;;;;;5053795;28;8775;-66
2022/01/17 04:12:15;;;;;;;;;141.25;126.00;4.20;81.40;;;;;;5053550;28;8811;-66
2022/01/17 04:14:40;;;;;;;;;148.75;140.25;4.10;83.00;;;;;;5057062;28;8897;-66
2022/01/17 04:17:07;;;;;;;;;153.50;135.75;4.10;83.00;;;;;;5057645;28;8790;-66
2022/01/17 04:19:33;;;;;;;;;143.00;128.75;4.50;79.20;;;;;;5057851;28;8940;-66
2022/01/17 04:22:00;;;;;;;;;149.75;137.25;4.30;80.60;;;;;;5057658;28;9441;-66
2022/01/17 04:24:26;;;;;;;;;135.25;123.25;4.70;79.10;;;;;;5057745;28;8771;-66
2022/01/17 04:26:52;;;;;;;;;155.75;139.50;4.30;80.80;;;;;;5057418;28;8844;-66
2022/01/17 04:29:19;;;;;;;;;158.50;140.50;4.10;82.90;;;;;;5057652;28;8797;-66
2022/01/17 04:31:45;;;;;;;;;144.25;134.50;4.10;83.50;;;;;;5057640;28;8763;-66
2022/01/17 04:34:11;;;;;;;;;144.25;131.25;3.70;86.00;;;;;;5057567;28;8864;-66
2022/01/17 04:36:36;;;;;;;;;140.00;129.75;3.80;86.90;;;;;;5057496;28;8795;-66
2022/01/17 04:39:03;;;;;;;;;140.50;125.50;4.30;84.00;;;;;;5057115;28;9556;-66
2022/01/17 04:41:38;;;;;;;;;140.50;131.00;4.50;81.80;;;;;;5057464;28;8774;-66
2022/01/17 04:46:49;;;;;;;;;129.00;118.25;4.30;82.70;;;;;;5057165;28;8751;-66
2022/01/17 04:49:15;;;;;;;;;128.00;118.75;4.20;83.00;;;;;;5057045;28;8848;-66
2022/01/17 04:51:41;;;;;;;;;137.75;125.50;4.40;82.40;;;;;;5056867;28;8751;-66
2022/01/17 04:54:39;;;;;;;;;135.75;119.50;4.60;80.10;;;;;;5057067;28;8861;-67
2022/01/17 04:57:01;;;;;;;;;128.50;123.00;4.50;80.00;;;;;;5056817;28;8810;-67
2022/01/17 04:59:27;;;;;;;;;147.00;135.25;4.80;77.80;;;;;;5056787;28;8799;-66
2022/01/17 05:01:52;;;;;;;;;155.50;136.50;5.00;76.50;;;;;;5056746;28;8774;-67
2022/01/17 05:04:18;;;;;;;;;137.25;125.25;5.20;75.30;;;;;;5056779;28;8775;-67
2022/01/17 05:06:44;;;;;;;;;145.00;133.00;5.10;74.40;;;;;;5056606;28;8775;-67
2022/01/17 05:09:10;;;;;;;;;135.25;124.75;5.10;74.80;;;;;;5056814;28;8771;-67
2022/01/17 05:11:35;;;;;;;;;125.00;116.00;4.60;78.00;;;;;;5056464;28;9405;-67
2022/01/17 05:14:01;;;;;;;;;124.75;115.00;4.20;81.70;;;;;;5056463;28;8806;-67
2022/01/17 05:16:34;;;;;;;;;135.00;119.00;4.00;83.80;;;;;;5056452;28;8797;-66
2022/01/17 05:21:44;;;;;;;;;128.00;116.00;4.80;78.70;;;;;;5056429;28;8751;-65
2022/01/17 05:24:10;;;;;;;;;138.50;128.25;4.60;78.60;;;;;;5056085;28;8789;-66
2022/01/17 05:26:36;;;;;;;;;137.75;127.00;4.70;78.50;;;;;;5056007;28;8759;-65
2022/01/17 05:29:02;;;;;;;;;137.50;125.00;4.90;78.20;;;;;;5056494;28;8778;-65
2022/01/17 05:31:28;;;;;;;;;151.25;137.00;5.30;74.90;;;;;;5056236;28;9402;-66
2022/01/17 05:33:53;;;;;;;;;155.25;138.75;5.40;73.10;;;;;;5056090;28;8799;-65
2022/01/17 05:36:19;;;;;;;;;162.25;151.00;5.20;73.50;;;;;;5056237;28;8844;-65
2022/01/17 05:38:45;;;;;;;;;152.50;136.50;5.30;73.40;;;;;;5056114;28;8767;-65
2022/01/17 05:41:11;;;;;;;;;134.25;127.25;5.30;72.70;;;;;;5056030;28;8845;-65
2022/01/17 05:43:36;;;;;;;;;145.25;127.25;5.30;72.80;;;;;;5055861;28;8925;-65
2022/01/17 05:46:02;;;;;;;;;129.75;118.25;5.50;71.60;;;;;;5056180;28;8767;-66
2022/01/17 05:48:28;;;;;;;;;151.00;128.00;5.60;71.00;;;;;;5054929;28;8848;-66
2022/01/17 05:50:54;;;;;;;;;157.25;140.25;5.60;70.60;;;;;;5055962;28;8850;-66
2022/01/17 05:53:20;;;;;;;;;195.00;172.00;5.50;70.20;;;;;;5056106;28;8896;-66
2022/01/17 05:55:45;;;;;;;;;199.25;180.50;5.30;72.00;;;;;;5056071;28;8825;-66
2022/01/17 05:58:12;;;;;;;;;205.50;184.75;4.90;75.10;;;;;;5055691;28;8787;-65
2022/01/17 06:00:39;;;;;;;;;198.50;183.25;4.50;77.80;;;;;;5055712;28;8763;-66
2022/01/17 06:03:04;;;;;;;;;204.25;183.25;4.50;77.90;;;;;;5055830;28;9495;-65
2022/01/17 06:05:30;;;;;;;;;203.25;180.25;4.80;75.50;;;;;;5055522;28;8771;-66
2022/01/17 06:07:56;;;;;;;;;190.00;167.50;4.80;74.30;;;;;;5055547;28;8790;-66
2022/01/17 06:10:22;;;;;;;;;204.25;182.00;5.10;73.40;;;;;;5055538;28;8771;-66
2022/01/17 06:12:48;;;;;;;;;188.75;170.50;5.20;72.10;;;;;;5055330;28;8803;-66
2022/01/17 06:15:14;;;;;;;;;189.50;173.75;5.40;70.70;;;;;;5055430;28;8882;-66
2022/01/17 06:17:39;;;;;;;;;217.50;186.50;5.40;70.80;;;;;;5055686;28;8744;-66
2022/01/17 06:20:06;;;;;;;;;223.25;206.25;4.90;73.00;;;;;;5055292;28;8751;-66
2022/01/17 06:22:32;;;;;;;;;224.50;202.50;4.60;75.50;;;;;;5055359;28;8795;-66
2022/01/17 06:24:58;;;;;;;;;193.50;179.00;5.00;74.00;;;;;;5055405;28;8863;-66
2022/01/17 06:27:23;;;;;;;;;199.75;178.00;5.50;70.80;;;;;;5055202;28;8755;-66
2022/01/17 06:29:51;;;;;;;;;200.50;180.00;5.80;68.40;;;;;;5055112;28;8804;-66
2022/01/17 06:32:17;;;;;;;;;191.00;179.25;5.90;67.20;;;;;;5055341;28;8847;-66
2022/01/17 06:34:43;;;;;;;;;141.75;131.00;5.90;66.90;;;;;;5054964;28;8794;-66
2022/01/17 06:37:09;;;;;;;;;170.25;153.00;5.40;68.90;;;;;;5054760;28;8764;-66
2022/01/17 06:39:35;;;;;;;;;183.75;166.25;5.50;70.00;;;;;;5054693;28;8856;-66
2022/01/17 06:42:01;;;;;;;;;196.75;176.00;5.30;69.50;;;;;;5055007;28;8797;-66
2022/01/17 06:44:26;;;;;;;;;231.25;205.25;5.30;70.30;;;;;;5054791;28;8798;-66
2022/01/17 06:46:52;;;;;;;;;169.25;151.00;5.70;68.50;;;;;;5054754;28;8787;-66
2022/01/17 06:49:18;;;;;;;;;174.50;159.25;5.40;70.50;;;;;;5055013;28;8794;-66
2022/01/17 06:51:44;;;;;;;;;175.50;154.00;5.60;69.40;;;;;;5054602;28;8774;-66
2022/01/17 06:54:09;;;;;;;;;192.75;166.75;5.90;68.20;;;;;;5055081;28;8798;-66
2022/01/17 06:56:35;;;;;;;;;192.50;167.75;6.30;66.50;;;;;;5054654;28;8813;-66
2022/01/17 06:59:01;;;;;;;;;198.00;176.75;6.00;67.40;;;;;;5054622;28;8817;-65
2022/01/17 07:01:27;;;;;;;;;196.75;167.25;5.90;68.20;;;;;;5054704;28;8775;-65
2022/01/17 07:03:53;;;;;;;;;204.00;179.25;6.30;66.60;;;;;;5054724;28;9409;-65
2022/01/17 07:06:19;;;;;;;;;185.00;163.00;6.30;65.50;;;;;;5054886;28;8765;-65
2022/01/17 07:08:45;;;;;;;;;265.50;230.50;5.90;67.70;;;;;;5052783;28;8767;-65
2022/01/17 07:11:12;;;;;;;;;263.75;241.00;5.80;67.80;;;;;;5054198;28;8855;-66
2022/01/17 07:13:38;;;;;;;;;262.75;233.50;5.90;67.60;;;;;;5054498;28;8775;-65
2022/01/17 07:16:04;;;;;;;;;249.00;237.50;6.10;67.00;;;;;;5054371;28;8771;-65
2022/01/17 07:18:31;;;;;;;;;249.25;235.25;6.00;67.30;;;;;;5054317;28;8933;-65
2022/01/17 07:20:57;;;;;;;;;332.50;294.75;6.10;66.90;;;;;;5054556;28;8929;-66
2022/01/17 07:23:23;;;;;;;;;284.00;253.75;6.00;66.90;;;;;;5056356;28;8796;-66
2022/01/17 07:25:49;;;;;;;;;293.25;270.00;6.10;67.00;;;;;;5059636;28;8788;-65
2022/01/17 07:28:14;;;;;;;;;292.25;253.75;6.00;67.30;;;;;;5058596;28;8788;-73
2022/01/17 07:30:40;;;;;;;;;268.25;239.00;6.20;67.40;;;;;;5065616;28;8768;-66
2022/01/17 07:33:08;;;;;;;;;260.00;228.75;6.30;65.80;;;;;;5065414;28;8923;-74
2022/01/17 07:35:35;;;;;;;;;258.50;233.50;6.50;64.80;;;;;;5058753;28;8811;-65
2022/01/17 07:38:01;;;;;;;;;251.50;231.50;6.60;64.50;;;;;;5064827;28;8781;-66
2022/01/17 07:40:26;;;;;;;;;236.75;214.00;6.60;64.50;;;;;;5062256;28;8895;-66
2022/01/17 07:42:52;;;;;;;;;238.00;217.50;6.70;64.10;;;;;;5064876;28;8803;-65
2022/01/17 07:45:20;;;;;;;;;228.75;215.25;6.80;63.50;;;;;;5066926;28;8781;-65
2022/01/17 07:48:08;;;;;;;;;220.50;196.25;6.60;64.00;;;;;;5055712;28;8795;-65
2022/01/17 07:50:32;;;;;;;;;258.75;243.75;6.30;65.70;;;;;;5057856;28;8790;-65
2022/01/17 07:52:57;;;;;;;;;285.00;260.00;6.30;66.10;;;;;;5069334;28;8883;-67
2022/01/17 07:55:23;;;;;;;;;298.75;266.25;6.50;65.20;;;;;;5058018;28;8818;-65
2022/01/17 07:57:49;;;;;;;;;283.25;251.25;6.80;64.50;;;;;;5058000;28;8885;-65
2022/01/17 08:00:23;;;;;;;;;259.50;230.75;6.80;64.80;;;;;;5067091;28;8792;-65
2022/01/17 08:02:56;;;;;;;;;283.75;255.25;7.00;63.60;;;;;;5059050;28;8799;-65
2022/01/17 08:05:22;;;;;;;;;285.00;253.75;7.20;62.70;;;;;;5071613;28;8773;-66
2022/01/17 08:07:48;;;;;;;;;277.75;248.50;7.60;62.40;;;;;;5075997;28;8854;-67
2022/01/17 08:10:15;;;;;;;;;281.00;253.75;7.60;61.50;;;;;;5077780;28;8776;-67
2022/01/17 08:12:42;;;;;;;;;349.00;316.50;7.60;61.40;;;;;;5070983;28;8914;-73
2022/01/17 08:15:09;;;;;;;;;259.75;244.50;7.80;61.10;;;;;;5066418;28;8806;-67
2022/01/17 08:17:35;;;;;;;;;209.75;190.75;7.20;62.00;;;;;;5065076;28;8921;-67
2022/01/17 08:20:01;;;;;;;;;196.00;176.75;7.10;63.20;;;;;;5061544;28;8763;-67
2022/01/17 08:22:27;;;;;;;;;172.75;156.75;7.30;62.40;;;;;;5069315;28;8975;-69
2022/01/17 08:24:52;;;;;;;;;153.00;142.00;7.10;63.20;;;;;;5059243;28;8783;-70
2022/01/17 08:27:18;;;;;;;;;194.50;167.25;7.40;62.50;;;;;;5057260;28;8809;-72
2022/01/17 08:29:44;;;;;;;;;159.25;150.50;7.40;62.50;;;;;;5068668;28;8769;-70
2022/01/17 08:32:10;;;;;;;;;186.25;164.25;7.20;62.80;;;;;;5066708;28;8895;-71
2022/01/17 08:34:35;;;;;;;;;187.00;166.50;7.40;62.20;;;;;;5059996;28;8806;-70
2022/01/17 08:37:02;;;;;;;;;183.50;167.75;7.40;62.80;;;;;;5067265;28;8790;-70
2022/01/17 08:39:28;;;;;;;;;194.00;175.00;6.60;65.50;;;;;;5059636;28;8782;-70
2022/01/17 08:41:55;;;;;;;;;213.25;195.00;6.80;65.40;;;;;;5068211;28;8768;-72
2022/01/17 08:44:21;;;;;;;;;253.00;227.25;7.00;65.00;;;;;;5069137;28;8763;-70
2022/01/17 08:46:47;;;;;;;;;269.75;244.50;7.40;63.60;;;;;;5068648;28;8788;-68
2022/01/17 08:49:13;;;;;;;;;260.75;237.00;7.00;65.10;;;;;;5073715;28;8764;-66
2022/01/17 08:51:39;;;;;;;;;283.75;260.75;7.40;63.70;;;;;;5075421;28;8784;-65
2022/01/17 08:54:07;;;;;;;;;276.00;251.50;7.80;62.30;;;;;;5069175;28;8946;-62
2022/01/17 08:56:33;;;;;;;;;267.25;244.75;8.10;60.90;;;;;;5072137;28;8784;-67
2022/01/17 08:59:01;;;;;;;;;211.50;196.75;7.40;62.70;;;;;;5067215;28;8853;-65
2022/01/17 09:01:28;;;;;;;;;191.75;174.00;7.70;62.50;;;;;;5070347;28;8789;-67
2022/01/17 09:03:54;;;;;;;;;189.75;173.75;7.70;62.20;;;;;;5075983;28;8756;-71
2022/01/17 09:06:23;;;;;;;;;183.25;168.50;7.90;60.80;;;;;;5073404;28;9312;-69
2022/01/17 09:08:48;;;;;;;;;142.00;125.25;7.60;61.80;;;;;;5076891;28;8768;-74
2022/01/17 09:11:14;;;;;;;;;146.75;133.75;7.40;62.30;;;;;;5076489;28;8788;-75
2022/01/17 09:13:40;;;;;;;;;114.00;104.25;7.40;62.20;;;;;;5076430;28;8804;-71
2022/01/17 09:16:08;;;;;;;;;112.25;101.50;7.60;61.20;;;;;;5071161;28;8850;-68
2022/01/17 09:18:35;;;;;;;;;90.75;72.25;8.00;60.10;;;;;;5066364;28;8765;-69
2022/01/17 09:21:01;;;;;;;;;96.50;86.75;8.30;59.10;;;;;;5070901;28;8767;-67
2022/01/17 09:23:26;;;;;;;;;87.75;71.00;7.90;60.60;;;;;;5072282;28;9228;-67
2022/01/17 09:25:52;;;;;;;;;94.75;80.50;7.70;61.50;;;;;;5072803;28;8786;-68
2022/01/17 09:28:19;;;;;;;;;91.25;76.25;8.10;59.50;;;;;;5072868;28;9848;-70
2022/01/17 09:30:46;;;;;;;;;90.50;77.25;8.10;59.90;;;;;;5074945;28;8803;-69
2022/01/17 09:33:12;;;;;;;;;87.75;74.75;8.00;60.40;;;;;;5070919;28;8773;-67
2022/01/17 09:35:38;;;;;;;;;89.25;74.75;8.10;60.10;;;;;;5072999;28;9447;-71
2022/01/17 09:38:04;;;;;;;;;89.50;78.00;8.20;58.90;;;;;;5072374;28;8756;-71
2022/01/17 09:40:30;;;;;;;;;83.25;65.50;7.80;60.30;;;;;;5072502;28;8846;-72
2022/01/17 09:42:58;;;;;;;;;77.25;61.25;8.10;60.10;;;;;;5074342;28;8792;-71
2022/01/17 09:45:24;;;;;;;;;75.50;60.75;8.30;58.00;;;;;;5076155;28;8800;-74
2022/01/17 09:47:50;;;;;;;;;70.00;53.50;8.30;57.70;;;;;;5075289;28;8864;-71
2022/01/17 09:50:21;;;;;;;;;62.75;52.50;8.40;57.10;;;;;;5075862;28;8777;-71
2022/01/17 09:52:52;;;;;;;;;55.00;43.50;8.40;56.50;;;;;;5076181;28;8792;-70
2022/01/17 09:55:27;;;;;;;;;47.00;38.75;8.40;56.20;;;;;;5064827;28;8817;-71
2022/01/17 09:57:56;;;;;;;;;48.25;42.00;8.40;55.60;;;;;;5068013;28;8798;-69
2022/01/17 10:00:26;;;;;;;;;46.25;39.75;8.50;54.50;;;;;;5072219;28;8782;-71
2022/01/17 10:02:55;;;;;;;;;45.00;40.50;8.60;54.40;;;;;;5071910;28;8795;-71
2022/01/17 10:05:22;;;;;;;;;33.75;29.50;8.50;54.30;;;;;;5069731;28;8779;-70
2022/01/17 10:08:00;;;;;;;;;35.50;35.50;8.70;54.20;;;;;;5068626;28;8808;-69
2022/01/17 10:10:49;;;;;;;;;34.75;33.00;8.90;53.50;;;;;;5057224;28;9410;-69
2022/01/17 10:13:29;;;;;;;;;34.50;33.25;8.90;51.90;;;;;;5066407;28;8873;-69
2022/01/17 10:16:13;;;;;;;;;32.50;28.25;9.20;50.90;;;;;;5064708;28;8812;-70
2022/01/17 10:18:55;;;;;;;;;40.75;38.00;9.60;50.30;;;;;;5057439;28;8763;-69
2022/01/17 10:21:31;;;;;;;;;60.50;46.50;9.70;49.90;;;;;;5066535;28;8796;-69
2022/01/17 10:24:23;;;;;;;;;39.25;33.25;10.40;48.40;;;;;;5066379;28;8847;-69
2022/01/17 10:35:19;;;;;;;;;31.00;29.00;21.80;28.30;;;;;;5064529;28;8828;-66
2022/01/17 10:38:24;;;;;;;;;23.33;22.33;21.90;27.20;;;;;;5070278;28;8890;-67
2022/01/17 10:41:00;;;;;;;;;26.00;26.00;21.70;27.10;;;;;;5011261;28;11608;-67
2022/01/17 10:43:34;;;;;;;;;28.00;26.00;23.80;25.70;;;;;;5011487;28;11493;-67
2022/01/17 10:46:11;;;;;;;;;27.67;27.67;23.20;25.40;;;;;;5007161;28;11628;-68
2022/01/17 10:48:44;;;;;;;;;26.00;26.00;25.10;24.70;;;;;;5008180;28;11528;-67
2022/01/17 10:51:11;;;;;;;;;26.33;26.33;25.80;23.70;;;;;;5000463;28;11524;-67
2022/01/17 10:53:40;;;;;;;;;26.00;26.00;26.10;23.30;;;;;;5003762;28;11514;-65
2022/01/17 10:56:10;;;;;;;;;21.00;21.00;25.80;23.90;;;;;;5002806;28;11676;-64
2022/01/17 10:58:38;;;;;;;;;29.67;28.67;25.40;23.50;;;;;;5001546;28;11698;-66
2022/01/17 11:01:15;;;;;;;;;25.00;25.00;24.80;24.50;;;;;;5003765;28;12244;-66
2022/01/17 11:03:44;;;;;;;;;26.67;26.67;25.70;23.60;;;;;;5008124;28;11495;-75
2022/01/17 11:06:13;;;;;;;;;20.67;18.67;28.10;22.40;;;;;;5010336;28;11554;-68
2022/01/17 11:08:40;;;;;;;;;23.00;23.00;28.30;21.70;;;;;;5008833;28;11508;-70
2022/01/17 11:11:09;;;;;;;;;22.50;22.50;26.80;21.90;;;;;;5009328;28;11473;-68
2022/01/17 11:13:38;;;;;;;;;21.25;21.25;28.10;21.60;;;;;;5009300;28;11593;-67
2022/01/17 11:16:11;;;;;;;;;14.25;14.25;29.00;21.10;;;;;;5016263;28;11504;-67
2022/01/17 11:18:40;;;;;;;;;22.67;22.67;23.20;22.50;;;;;;5074095;28;11493;-66
2022/01/17 11:21:14;;;;;;;;;16.25;16.25;20.50;26.60;;;;;;5074163;28;11614;-68
2022/01/17 11:23:43;;;;;;;;;27.00;27.00;20.90;26.50;;;;;;5073652;28;11627;-65
2022/01/17 11:26:10;;;;;;;;;23.67;23.67;23.50;25.50;;;;;;5073995;28;11651;-68
2022/01/17 11:28:38;;;;;;;;;24.00;24.00;28.10;22.40;;;;;;5072871;28;11481;-65
2022/01/17 11:31:08;;;;;;;;;21.33;21.33;27.60;20.10;;;;;;5073023;28;11501;-68
2022/01/17 11:33:35;;;;;;;;;20.25;20.25;25.50;22.00;;;;;;5068667;28;11616;-66
2022/01/17 11:36:02;;;;;;;;;23.75;23.75;26.80;22.10;;;;;;5069878;28;11500;-67
2022/01/17 11:38:39;;;;;;;;;23.00;23.00;28.70;21.30;;;;;;5066780;28;11502;-67
2022/01/17 11:41:06;;;;;;;;;23.00;23.00;29.00;20.30;;;;;;5065285;28;11513;-67
2022/01/17 11:43:36;;;;;;;;;17.50;17.50;26.90;22.00;;;;;;5072544;28;11482;-66
2022/01/17 11:46:26;;;;;;;;;16.00;16.00;25.50;21.80;;;;;;5066076;28;11620;-67
2022/01/17 11:48:58;;;;;;;;;19.00;19.00;28.30;21.50;;;;;;5064937;28;11503;-67
2022/01/17 11:51:40;;;;;;;;;20.25;20.25;31.10;20.30;;;;;;5053840;28;11500;-66
2022/01/17 11:54:22;;;;;;;;;19.50;19.50;27.90;20.40;;;;;;5067538;28;11602;-66
2022/01/17 11:56:53;;;;;;;;;19.25;19.25;27.20;21.90;;;;;;5070427;28;11493;-66
2022/01/17 11:59:34;;;;;;;;;18.50;18.50;28.60;20.70;;;;;;5068523;28;11467;-66
2022/01/17 12:02:23;;;;;;;;;13.00;13.00;29.40;20.30;;;;;;5071649;28;11499;-67
2022/01/17 12:05:07;;;;;;;;;19.50;19.50;30.80;19.30;;;;;;5070097;28;11479;-66
2022/01/17 12:07:53;;;;;;;;;13.75;13.75;32.40;18.20;;;;;;5066689;28;11618;-67
2022/01/17 12:10:37;;;;;;;;;14.75;14.75;30.50;19.00;;;;;;5070861;28;11436;-66
2022/01/17 12:13:12;;;;;;;;;19.50;19.50;29.90;19.20;;;;;;5066907;28;11634;-67
2022/01/17 12:15:58;;;;;;;;;16.25;15.50;32.10;18.20;;;;;;5067066;28;11571;-68
2022/01/17 12:18:32;;;;;;;;;17.50;17.50;29.30;18.70;;;;;;5062660;28;11470;-67
2022/01/17 12:21:16;;;;;;;;;12.50;12.50;29.40;19.80;;;;;;5063989;28;11524;-67
2022/01/17 12:23:42;;;;;;;;;15.75;15.75;28.70;18.90;;;;;;5059584;28;12367;-67
2022/01/17 12:26:28;;;;;;;;;18.25;18.25;28.10;20.00;;;;;;5058712;28;11507;-67
2022/01/17 12:28:56;;;;;;;;;18.00;18.00;26.50;21.30;;;;;;5060475;28;8802;-66
2022/01/17 12:31:45;;;;;;;;;14.75;14.75;26.90;21.00;;;;;;5061248;28;11503;-67
2022/01/17 12:34:17;;;;;;;;;18.00;18.00;27.70;20.40;;;;;;5063934;28;11631;-66
2022/01/17 12:36:43;;;;;;;;;17.75;17.75;27.70;20.50;;;;;;5057251;28;11509;-67
2022/01/17 12:39:20;;;;;;;;;22.00;22.00;28.20;20.20;;;;;;5056773;28;11585;-67
2022/01/17 12:41:50;;;;;;;;;22.33;22.33;28.40;20.50;;;;;;5061777;28;8792;-68
2022/01/17 12:44:24;;;;;;;;;22.33;22.33;29.90;19.60;;;;;;5077227;28;12147;-67
2022/01/17 12:46:58;;;;;;;;;21.33;21.33;28.50;19.40;;;;;;5076606;28;11500;-65
2022/01/17 12:49:25;;;;;;;;;17.00;17.00;27.40;19.90;;;;;;5076798;28;11572;-67
2022/01/17 12:51:52;;;;;;;;;17.67;17.67;26.20;20.30;;;;;;5076661;28;11510;-67
2022/01/17 12:54:24;;;;;;;;;23.67;23.67;27.90;19.70;;;;;;5076613;28;11533;-67
2022/01/17 12:56:54;;;;;;;;;21.00;21.00;28.30;19.00;;;;;;5076661;28;11591;-67
2022/01/17 12:59:20;;;;;;;;;22.33;22.33;25.70;20.20;;;;;;5076849;28;11580;-67
2022/01/17 13:01:54;;;;;;;;;22.00;22.00;26.00;21.00;;;;;;5076812;28;12213;-68